sensor_id;sensor_type;location;lat;lon;timestamp;P1;durP1;ratioP1;P2;durP2;ratioP2
19869;SDS011;10097;50.862;4.696;2023-06-10T00:02:10;10.40;;;5.60;;
19869;SDS011;10097;50.862;4.696;2023-06-10T00:04:36;9.05;;;5.32;;
19869;SDS011;10097;50.862;4.696;2023-06-10T00:07:05;11.70;;;5.68;;
19869;SDS011;10097;50.862;4.696;2023-06-10T00:09:35;13.20;;;6.00;;
19869;SDS011;10097;50.862;4.696;2023-06-10T00:12:08;10.30;;;5.53;;
19869;SDS011;10097;50.862;4.696;2023-06-10T00:14:38;12.65;;;5.93;;
19869;SDS011;10097;50.862;4.696;2023-06-10T00:17:05;10.82;;;5.68;;
19869;SDS011;10097;50.862;4.696;2023-06-10T00:19:34;9.65;;;5.75;;
19869;SDS011;10097;50.862;4.696;2023-06-10T00:22:01;13.48;;;5.93;;
19869;SDS011;10097;50.862;4.696;2023-06-10T00:24:30;12.23;;;5.72;;
19869;SDS011;10097;50.862;4.696;2023-06-10T00:26:55;12.50;;;5.85;;
19869;SDS011;10097;50.862;4.696;2023-06-10T00:29:21;10.73;;;5.40;;
19869;SDS011;10097;50.862;4.696;2023-06-10T00:31:47;11.15;;;5.30;;
19869;SDS011;10097;50.862;4.696;2023-06-10T00:34:12;11.60;;;5.72;;
19869;SDS011;10097;50.862;4.696;2023-06-10T00:36:38;15.52;;;6.60;;
19869;SDS011;10097;50.862;4.696;2023-06-10T00:39:04;12.43;;;6.15;;
19869;SDS011;10097;50.862;4.696;2023-06-10T00:41:29;11.63;;;6.07;;
19869;SDS011;10097;50.862;4.696;2023-06-10T00:43:55;10.77;;;5.72;;
19869;SDS011;10097;50.862;4.696;2023-06-10T00:46:22;13.70;;;6.60;;
19869;SDS011;10097;50.862;4.696;2023-06-10T00:48:49;12.93;;;5.70;;
19869;SDS011;10097;50.862;4.696;2023-06-10T00:51:16;11.82;;;5.90;;
19869;SDS011;10097;50.862;4.696;2023-06-10T00:53:42;10.75;;;6.35;;
19869;SDS011;10097;50.862;4.696;2023-06-10T00:56:09;13.52;;;5.82;;
19869;SDS011;10097;50.862;4.696;2023-06-10T00:58:35;11.48;;;5.50;;
19869;SDS011;10097;50.862;4.696;2023-06-10T01:01:01;10.10;;;6.05;;
19869;SDS011;10097;50.862;4.696;2023-06-10T01:03:29;10.30;;;6.25;;
19869;SDS011;10097;50.862;4.696;2023-06-10T01:06:02;11.45;;;6.07;;
19869;SDS011;10097;50.862;4.696;2023-06-10T01:11:57;10.90;;;5.68;;
19869;SDS011;10097;50.862;4.696;2023-06-10T01:14:33;12.35;;;6.30;;
19869;SDS011;10097;50.862;4.696;2023-06-10T01:16:59;11.23;;;6.43;;
19869;SDS011;10097;50.862;4.696;2023-06-10T01:19:25;16.30;;;7.50;;
19869;SDS011;10097;50.862;4.696;2023-06-10T01:21:51;12.00;;;5.80;;
19869;SDS011;10097;50.862;4.696;2023-06-10T01:24:17;10.30;;;5.80;;
19869;SDS011;10097;50.862;4.696;2023-06-10T01:26:44;14.15;;;6.15;;
19869;SDS011;10097;50.862;4.696;2023-06-10T01:29:19;11.70;;;6.10;;
19869;SDS011;10097;50.862;4.696;2023-06-10T01:34:19;10.10;;;6.00;;
19869;SDS011;10097;50.862;4.696;2023-06-10T01:36:48;16.55;;;6.40;;
19869;SDS011;10097;50.862;4.696;2023-06-10T01:39:15;12.15;;;6.22;;
19869;SDS011;10097;50.862;4.696;2023-06-10T01:41:45;10.90;;;6.18;;
19869;SDS011;10097;50.862;4.696;2023-06-10T01:44:19;12.63;;;5.95;;
19869;SDS011;10097;50.862;4.696;2023-06-10T01:46:46;12.80;;;6.30;;
19869;SDS011;10097;50.862;4.696;2023-06-10T01:49:12;10.60;;;6.38;;
19869;SDS011;10097;50.862;4.696;2023-06-10T01:51:38;11.73;;;5.90;;
19869;SDS011;10097;50.862;4.696;2023-06-10T01:54:04;10.98;;;5.93;;
19869;SDS011;10097;50.862;4.696;2023-06-10T01:56:31;16.63;;;6.15;;
19869;SDS011;10097;50.862;4.696;2023-06-10T01:58:57;11.40;;;6.15;;
19869;SDS011;10097;50.862;4.696;2023-06-10T02:01:26;12.88;;;6.22;;
19869;SDS011;10097;50.862;4.696;2023-06-10T02:03:53;12.98;;;6.70;;
19869;SDS011;10097;50.862;4.696;2023-06-10T02:06:19;11.25;;;5.65;;
19869;SDS011;10097;50.862;4.696;2023-06-10T02:08:44;12.13;;;6.40;;
19869;SDS011;10097;50.862;4.696;2023-06-10T02:11:10;10.07;;;6.00;;
19869;SDS011;10097;50.862;4.696;2023-06-10T02:13:37;12.68;;;6.50;;
19869;SDS011;10097;50.862;4.696;2023-06-10T02:16:03;13.05;;;6.63;;
19869;SDS011;10097;50.862;4.696;2023-06-10T02:18:30;12.02;;;6.50;;
19869;SDS011;10097;50.862;4.696;2023-06-10T02:20:56;11.70;;;6.28;;
19869;SDS011;10097;50.862;4.696;2023-06-10T02:23:22;11.32;;;6.25;;
19869;SDS011;10097;50.862;4.696;2023-06-10T02:25:47;10.95;;;6.75;;
19869;SDS011;10097;50.862;4.696;2023-06-10T02:28:13;12.05;;;6.75;;
19869;SDS011;10097;50.862;4.696;2023-06-10T02:30:40;11.45;;;6.90;;
19869;SDS011;10097;50.862;4.696;2023-06-10T02:33:06;12.30;;;6.72;;
19869;SDS011;10097;50.862;4.696;2023-06-10T02:35:37;16.15;;;7.45;;
19869;SDS011;10097;50.862;4.696;2023-06-10T02:38:03;16.05;;;7.00;;
19869;SDS011;10097;50.862;4.696;2023-06-10T02:40:29;11.45;;;6.47;;
19869;SDS011;10097;50.862;4.696;2023-06-10T02:42:54;14.90;;;7.40;;
19869;SDS011;10097;50.862;4.696;2023-06-10T02:45:20;10.95;;;7.28;;
19869;SDS011;10097;50.862;4.696;2023-06-10T02:47:46;11.52;;;6.90;;
19869;SDS011;10097;50.862;4.696;2023-06-10T02:50:12;13.60;;;7.00;;
19869;SDS011;10097;50.862;4.696;2023-06-10T02:52:37;13.05;;;6.30;;
19869;SDS011;10097;50.862;4.696;2023-06-10T02:55:03;14.13;;;6.57;;
19869;SDS011;10097;50.862;4.696;2023-06-10T02:57:30;13.43;;;6.82;;
19869;SDS011;10097;50.862;4.696;2023-06-10T02:59:56;13.23;;;7.03;;
19869;SDS011;10097;50.862;4.696;2023-06-10T03:02:23;11.57;;;7.35;;
19869;SDS011;10097;50.862;4.696;2023-06-10T03:04:53;11.18;;;6.90;;
19869;SDS011;10097;50.862;4.696;2023-06-10T03:07:20;13.45;;;7.95;;
19869;SDS011;10097;50.862;4.696;2023-06-10T03:09:46;12.07;;;7.60;;
19869;SDS011;10097;50.862;4.696;2023-06-10T03:12:12;12.38;;;7.00;;
19869;SDS011;10097;50.862;4.696;2023-06-10T03:14:37;14.50;;;6.97;;
19869;SDS011;10097;50.862;4.696;2023-06-10T03:17:04;11.77;;;7.20;;
19869;SDS011;10097;50.862;4.696;2023-06-10T03:19:30;12.43;;;7.18;;
19869;SDS011;10097;50.862;4.696;2023-06-10T03:22:11;14.35;;;7.00;;
19869;SDS011;10097;50.862;4.696;2023-06-10T03:24:38;15.65;;;7.60;;
19869;SDS011;10097;50.862;4.696;2023-06-10T03:27:08;13.52;;;7.15;;
19869;SDS011;10097;50.862;4.696;2023-06-10T03:29:36;12.18;;;6.90;;
19869;SDS011;10097;50.862;4.696;2023-06-10T03:32:02;20.08;;;7.88;;
19869;SDS011;10097;50.862;4.696;2023-06-10T03:34:28;12.77;;;7.63;;
19869;SDS011;10097;50.862;4.696;2023-06-10T03:36:57;11.93;;;7.00;;
19869;SDS011;10097;50.862;4.696;2023-06-10T03:39:24;12.52;;;7.00;;
19869;SDS011;10097;50.862;4.696;2023-06-10T03:41:54;12.02;;;7.80;;
19869;SDS011;10097;50.862;4.696;2023-06-10T03:44:21;13.68;;;7.97;;
19869;SDS011;10097;50.862;4.696;2023-06-10T03:46:47;11.85;;;7.47;;
19869;SDS011;10097;50.862;4.696;2023-06-10T03:49:13;14.02;;;7.22;;
19869;SDS011;10097;50.862;4.696;2023-06-10T03:51:40;11.40;;;7.60;;
19869;SDS011;10097;50.862;4.696;2023-06-10T03:54:05;14.45;;;8.27;;
19869;SDS011;10097;50.862;4.696;2023-06-10T03:56:31;11.55;;;7.45;;
19869;SDS011;10097;50.862;4.696;2023-06-10T03:58:57;12.75;;;7.22;;
19869;SDS011;10097;50.862;4.696;2023-06-10T04:01:24;12.50;;;7.55;;
19869;SDS011;10097;50.862;4.696;2023-06-10T04:03:49;13.48;;;7.60;;
19869;SDS011;10097;50.862;4.696;2023-06-10T04:06:17;13.63;;;8.32;;
19869;SDS011;10097;50.862;4.696;2023-06-10T04:08:43;13.70;;;8.15;;
19869;SDS011;10097;50.862;4.696;2023-06-10T04:11:09;13.75;;;8.25;;
19869;SDS011;10097;50.862;4.696;2023-06-10T04:13:35;13.05;;;7.82;;
19869;SDS011;10097;50.862;4.696;2023-06-10T04:16:01;13.90;;;8.00;;
19869;SDS011;10097;50.862;4.696;2023-06-10T04:18:27;14.77;;;7.80;;
19869;SDS011;10097;50.862;4.696;2023-06-10T04:20:53;15.75;;;8.48;;
19869;SDS011;10097;50.862;4.696;2023-06-10T04:23:19;16.13;;;8.20;;
19869;SDS011;10097;50.862;4.696;2023-06-10T04:25:45;14.45;;;8.18;;
19869;SDS011;10097;50.862;4.696;2023-06-10T04:28:10;14.63;;;9.38;;
19869;SDS011;10097;50.862;4.696;2023-06-10T04:30:36;11.88;;;7.75;;
19869;SDS011;10097;50.862;4.696;2023-06-10T04:33:03;13.90;;;7.90;;
19869;SDS011;10097;50.862;4.696;2023-06-10T04:35:30;15.75;;;8.70;;
19869;SDS011;10097;50.862;4.696;2023-06-10T04:37:56;14.52;;;8.27;;
19869;SDS011;10097;50.862;4.696;2023-06-10T04:40:22;12.40;;;7.93;;
19869;SDS011;10097;50.862;4.696;2023-06-10T04:42:47;16.40;;;8.55;;
19869;SDS011;10097;50.862;4.696;2023-06-10T04:45:13;13.82;;;8.05;;
19869;SDS011;10097;50.862;4.696;2023-06-10T04:47:39;13.77;;;8.88;;
19869;SDS011;10097;50.862;4.696;2023-06-10T04:50:05;15.45;;;9.73;;
19869;SDS011;10097;50.862;4.696;2023-06-10T04:52:31;13.60;;;7.75;;
19869;SDS011;10097;50.862;4.696;2023-06-10T04:54:58;13.00;;;8.52;;
19869;SDS011;10097;50.862;4.696;2023-06-10T04:57:24;14.43;;;8.70;;
19869;SDS011;10097;50.862;4.696;2023-06-10T04:59:51;15.02;;;9.05;;
19869;SDS011;10097;50.862;4.696;2023-06-10T05:02:17;14.75;;;8.32;;
19869;SDS011;10097;50.862;4.696;2023-06-10T05:04:43;14.55;;;9.70;;
19869;SDS011;10097;50.862;4.696;2023-06-10T05:07:08;14.52;;;8.65;;
19869;SDS011;10097;50.862;4.696;2023-06-10T05:09:34;13.85;;;8.63;;
19869;SDS011;10097;50.862;4.696;2023-06-10T05:12:00;14.05;;;9.02;;
19869;SDS011;10097;50.862;4.696;2023-06-10T05:14:27;13.80;;;8.10;;
19869;SDS011;10097;50.862;4.696;2023-06-10T05:16:52;15.57;;;8.70;;
19869;SDS011;10097;50.862;4.696;2023-06-10T05:19:18;13.68;;;8.40;;
19869;SDS011;10097;50.862;4.696;2023-06-10T05:21:44;14.68;;;8.13;;
19869;SDS011;10097;50.862;4.696;2023-06-10T05:24:11;15.65;;;9.10;;
19869;SDS011;10097;50.862;4.696;2023-06-10T05:26:36;12.63;;;8.65;;
19869;SDS011;10097;50.862;4.696;2023-06-10T05:29:03;16.40;;;8.43;;
19869;SDS011;10097;50.862;4.696;2023-06-10T05:31:29;17.33;;;8.77;;
19869;SDS011;10097;50.862;4.696;2023-06-10T05:33:55;12.98;;;8.52;;
19869;SDS011;10097;50.862;4.696;2023-06-10T05:36:21;17.70;;;8.43;;
19869;SDS011;10097;50.862;4.696;2023-06-10T05:38:47;16.33;;;8.13;;
19869;SDS011;10097;50.862;4.696;2023-06-10T05:41:12;15.05;;;8.23;;
19869;SDS011;10097;50.862;4.696;2023-06-10T05:43:38;14.70;;;7.50;;
19869;SDS011;10097;50.862;4.696;2023-06-10T05:46:09;13.88;;;8.23;;
19869;SDS011;10097;50.862;4.696;2023-06-10T05:48:34;18.55;;;8.52;;
19869;SDS011;10097;50.862;4.696;2023-06-10T05:51:00;14.85;;;8.65;;
19869;SDS011;10097;50.862;4.696;2023-06-10T05:53:26;21.88;;;8.48;;
19869;SDS011;10097;50.862;4.696;2023-06-10T05:55:51;15.27;;;8.68;;
19869;SDS011;10097;50.862;4.696;2023-06-10T05:58:18;14.40;;;8.50;;
19869;SDS011;10097;50.862;4.696;2023-06-10T06:00:45;16.02;;;8.40;;
19869;SDS011;10097;50.862;4.696;2023-06-10T06:03:10;15.80;;;8.38;;
19869;SDS011;10097;50.862;4.696;2023-06-10T06:05:36;15.80;;;8.40;;
19869;SDS011;10097;50.862;4.696;2023-06-10T06:08:12;13.98;;;7.65;;
19869;SDS011;10097;50.862;4.696;2023-06-10T06:10:43;14.75;;;7.35;;
19869;SDS011;10097;50.862;4.696;2023-06-10T06:13:09;18.00;;;8.75;;
19869;SDS011;10097;50.862;4.696;2023-06-10T06:15:35;14.70;;;7.82;;
19869;SDS011;10097;50.862;4.696;2023-06-10T06:18:01;14.48;;;8.27;;
19869;SDS011;10097;50.862;4.696;2023-06-10T06:20:26;14.35;;;7.85;;
19869;SDS011;10097;50.862;4.696;2023-06-10T06:22:52;14.98;;;7.10;;
19869;SDS011;10097;50.862;4.696;2023-06-10T06:25:18;13.50;;;7.43;;
19869;SDS011;10097;50.862;4.696;2023-06-10T06:27:44;14.90;;;7.70;;
19869;SDS011;10097;50.862;4.696;2023-06-10T06:30:10;13.93;;;7.30;;
19869;SDS011;10097;50.862;4.696;2023-06-10T06:32:36;13.38;;;7.43;;
19869;SDS011;10097;50.862;4.696;2023-06-10T06:35:02;10.45;;;7.10;;
19869;SDS011;10097;50.862;4.696;2023-06-10T06:37:29;15.18;;;7.50;;
19869;SDS011;10097;50.862;4.696;2023-06-10T06:39:55;15.43;;;8.18;;
19869;SDS011;10097;50.862;4.696;2023-06-10T06:42:22;13.27;;;8.10;;
19869;SDS011;10097;50.862;4.696;2023-06-10T06:44:48;11.55;;;6.55;;
19869;SDS011;10097;50.862;4.696;2023-06-10T06:47:14;13.82;;;7.53;;
19869;SDS011;10097;50.862;4.696;2023-06-10T06:49:39;12.80;;;7.30;;
19869;SDS011;10097;50.862;4.696;2023-06-10T06:52:05;13.13;;;7.22;;
19869;SDS011;10097;50.862;4.696;2023-06-10T06:54:31;13.30;;;6.82;;
19869;SDS011;10097;50.862;4.696;2023-06-10T06:57:03;12.93;;;6.85;;
19869;SDS011;10097;50.862;4.696;2023-06-10T06:59:29;15.88;;;6.95;;
19869;SDS011;10097;50.862;4.696;2023-06-10T07:01:54;12.05;;;6.50;;
19869;SDS011;10097;50.862;4.696;2023-06-10T07:04:23;11.65;;;6.57;;
19869;SDS011;10097;50.862;4.696;2023-06-10T07:06:49;12.05;;;6.78;;
19869;SDS011;10097;50.862;4.696;2023-06-10T07:09:15;12.93;;;6.78;;
19869;SDS011;10097;50.862;4.696;2023-06-10T07:11:40;11.93;;;6.60;;
19869;SDS011;10097;50.862;4.696;2023-06-10T07:14:06;12.75;;;7.22;;
19869;SDS011;10097;50.862;4.696;2023-06-10T07:16:32;15.50;;;6.78;;
19869;SDS011;10097;50.862;4.696;2023-06-10T07:18:58;11.02;;;6.50;;
19869;SDS011;10097;50.862;4.696;2023-06-10T07:21:23;12.38;;;6.80;;
19869;SDS011;10097;50.862;4.696;2023-06-10T07:23:49;15.45;;;7.03;;
19869;SDS011;10097;50.862;4.696;2023-06-10T07:26:18;14.73;;;6.63;;
19869;SDS011;10097;50.862;4.696;2023-06-10T07:28:44;12.45;;;6.43;;
19869;SDS011;10097;50.862;4.696;2023-06-10T07:31:10;12.07;;;6.25;;
19869;SDS011;10097;50.862;4.696;2023-06-10T07:33:37;11.60;;;6.63;;
19869;SDS011;10097;50.862;4.696;2023-06-10T07:36:04;14.63;;;6.38;;
19869;SDS011;10097;50.862;4.696;2023-06-10T07:38:30;10.85;;;6.05;;
19869;SDS011;10097;50.862;4.696;2023-06-10T07:40:56;11.80;;;6.53;;
19869;SDS011;10097;50.862;4.696;2023-06-10T07:43:22;10.43;;;5.82;;
19869;SDS011;10097;50.862;4.696;2023-06-10T07:45:48;12.43;;;5.85;;
19869;SDS011;10097;50.862;4.696;2023-06-10T07:48:14;16.92;;;6.38;;
19869;SDS011;10097;50.862;4.696;2023-06-10T07:50:40;13.10;;;7.13;;
19869;SDS011;10097;50.862;4.696;2023-06-10T07:53:05;12.30;;;6.60;;
19869;SDS011;10097;50.862;4.696;2023-06-10T07:55:31;12.45;;;6.53;;
19869;SDS011;10097;50.862;4.696;2023-06-10T07:57:57;12.75;;;6.43;;
19869;SDS011;10097;50.862;4.696;2023-06-10T08:00:23;13.25;;;5.72;;
19869;SDS011;10097;50.862;4.696;2023-06-10T08:02:48;13.95;;;6.45;;
19869;SDS011;10097;50.862;4.696;2023-06-10T08:05:15;12.35;;;6.30;;
19869;SDS011;10097;50.862;4.696;2023-06-10T08:07:41;11.75;;;5.97;;
19869;SDS011;10097;50.862;4.696;2023-06-10T08:10:07;9.68;;;5.53;;
19869;SDS011;10097;50.862;4.696;2023-06-10T08:12:33;13.90;;;5.93;;
19869;SDS011;10097;50.862;4.696;2023-06-10T08:15:00;11.73;;;5.97;;
19869;SDS011;10097;50.862;4.696;2023-06-10T08:17:26;10.82;;;5.35;;
19869;SDS011;10097;50.862;4.696;2023-06-10T08:19:51;11.20;;;5.50;;
19869;SDS011;10097;50.862;4.696;2023-06-10T08:22:17;11.38;;;5.18;;
19869;SDS011;10097;50.862;4.696;2023-06-10T08:24:43;12.88;;;5.60;;
19869;SDS011;10097;50.862;4.696;2023-06-10T08:27:08;12.60;;;4.95;;
19869;SDS011;10097;50.862;4.696;2023-06-10T08:29:35;10.88;;;5.10;;
19869;SDS011;10097;50.862;4.696;2023-06-10T08:32:01;11.85;;;5.55;;
19869;SDS011;10097;50.862;4.696;2023-06-10T08:34:27;9.65;;;4.68;;
19869;SDS011;10097;50.862;4.696;2023-06-10T08:36:52;9.05;;;5.18;;
19869;SDS011;10097;50.862;4.696;2023-06-10T08:39:20;11.98;;;4.68;;
19869;SDS011;10097;50.862;4.696;2023-06-10T08:44:54;10.73;;;4.88;;
19869;SDS011;10097;50.862;4.696;2023-06-10T08:47:22;10.45;;;4.72;;
19869;SDS011;10097;50.862;4.696;2023-06-10T08:49:50;8.45;;;4.95;;
19869;SDS011;10097;50.862;4.696;2023-06-10T08:52:18;9.95;;;4.30;;
19869;SDS011;10097;50.862;4.696;2023-06-10T08:54:57;9.13;;;4.55;;
19869;SDS011;10097;50.862;4.696;2023-06-10T08:57:36;8.25;;;4.60;;
19869;SDS011;10097;50.862;4.696;2023-06-10T09:00:02;14.85;;;5.20;;
19869;SDS011;10097;50.862;4.696;2023-06-10T09:02:28;10.40;;;4.03;;
19869;SDS011;10097;50.862;4.696;2023-06-10T09:04:56;9.88;;;4.70;;
19869;SDS011;10097;50.862;4.696;2023-06-10T09:07:23;10.18;;;4.47;;
19869;SDS011;10097;50.862;4.696;2023-06-10T09:09:48;12.23;;;4.95;;
19869;SDS011;10097;50.862;4.696;2023-06-10T09:12:15;8.82;;;4.60;;
19869;SDS011;10097;50.862;4.696;2023-06-10T09:14:41;9.05;;;4.43;;
19869;SDS011;10097;50.862;4.696;2023-06-10T09:17:07;8.65;;;4.43;;
19869;SDS011;10097;50.862;4.696;2023-06-10T09:19:33;9.57;;;4.63;;
19869;SDS011;10097;50.862;4.696;2023-06-10T09:22:03;9.77;;;4.60;;
19869;SDS011;10097;50.862;4.696;2023-06-10T09:24:36;10.32;;;4.47;;
19869;SDS011;10097;50.862;4.696;2023-06-10T09:27:03;10.05;;;4.65;;
19869;SDS011;10097;50.862;4.696;2023-06-10T09:29:31;10.57;;;4.85;;
19869;SDS011;10097;50.862;4.696;2023-06-10T09:32:09;9.90;;;4.97;;
19869;SDS011;10097;50.862;4.696;2023-06-10T09:34:35;10.63;;;4.95;;
19869;SDS011;10097;50.862;4.696;2023-06-10T09:37:01;8.38;;;4.47;;
19869;SDS011;10097;50.862;4.696;2023-06-10T09:39:27;9.32;;;5.03;;
19869;SDS011;10097;50.862;4.696;2023-06-10T09:41:53;14.27;;;5.47;;
19869;SDS011;10097;50.862;4.696;2023-06-10T09:44:19;10.52;;;4.72;;
19869;SDS011;10097;50.862;4.696;2023-06-10T09:46:47;12.05;;;4.90;;
19869;SDS011;10097;50.862;4.696;2023-06-10T09:49:14;8.75;;;5.13;;
19869;SDS011;10097;50.862;4.696;2023-06-10T09:51:51;12.18;;;5.07;;
19869;SDS011;10097;50.862;4.696;2023-06-10T09:54:18;9.40;;;5.07;;
19869;SDS011;10097;50.862;4.696;2023-06-10T09:56:49;9.00;;;4.40;;
19869;SDS011;10097;50.862;4.696;2023-06-10T09:59:30;8.88;;;4.90;;
19869;SDS011;10097;50.862;4.696;2023-06-10T10:02:00;9.73;;;4.60;;
19869;SDS011;10097;50.862;4.696;2023-06-10T10:04:42;8.85;;;5.13;;
19869;SDS011;10097;50.862;4.696;2023-06-10T10:07:15;8.52;;;4.32;;
19869;SDS011;10097;50.862;4.696;2023-06-10T10:09:43;9.25;;;4.78;;
19869;SDS011;10097;50.862;4.696;2023-06-10T10:12:10;10.82;;;4.80;;
19869;SDS011;10097;50.862;4.696;2023-06-10T10:14:46;9.70;;;4.65;;
19869;SDS011;10097;50.862;4.696;2023-06-10T10:17:16;12.00;;;5.03;;
19869;SDS011;10097;50.862;4.696;2023-06-10T10:19:53;13.10;;;5.45;;
19869;SDS011;10097;50.862;4.696;2023-06-10T10:22:43;10.68;;;5.53;;
19869;SDS011;10097;50.862;4.696;2023-06-10T10:25:16;9.88;;;4.90;;
19869;SDS011;10097;50.862;4.696;2023-06-10T10:28:24;12.32;;;4.90;;
19869;SDS011;10097;50.862;4.696;2023-06-10T10:31:06;10.23;;;4.47;;
19869;SDS011;10097;50.862;4.696;2023-06-10T10:33:55;10.95;;;5.10;;
19869;SDS011;10097;50.862;4.696;2023-06-10T10:36:34;11.00;;;4.47;;
19869;SDS011;10097;50.862;4.696;2023-06-10T10:39:09;10.60;;;4.93;;
19869;SDS011;10097;50.862;4.696;2023-06-10T10:41:42;11.00;;;4.60;;
19869;SDS011;10097;50.862;4.696;2023-06-10T10:44:12;8.35;;;4.40;;
19869;SDS011;10097;50.862;4.696;2023-06-10T10:46:43;10.68;;;4.95;;
19869;SDS011;10097;50.862;4.696;2023-06-10T10:49:13;9.18;;;4.70;;
19869;SDS011;10097;50.862;4.696;2023-06-10T10:51:56;8.40;;;4.20;;
19869;SDS011;10097;50.862;4.696;2023-06-10T10:54:34;9.32;;;4.85;;
19869;SDS011;10097;50.862;4.696;2023-06-10T10:57:12;10.52;;;5.13;;
19869;SDS011;10097;50.862;4.696;2023-06-10T11:02:16;15.35;;;5.10;;
19869;SDS011;10097;50.862;4.696;2023-06-10T11:04:58;7.82;;;4.38;;
19869;SDS011;10097;50.862;4.696;2023-06-10T11:07:35;10.32;;;4.82;;
19869;SDS011;10097;50.862;4.696;2023-06-10T11:10:11;7.38;;;4.35;;
19869;SDS011;10097;50.862;4.696;2023-06-10T11:15:13;9.70;;;4.45;;
19869;SDS011;10097;50.862;4.696;2023-06-10T11:28:36;12.18;;;4.63;;
19869;SDS011;10097;50.862;4.696;2023-06-10T11:31:03;9.85;;;4.90;;
19869;SDS011;10097;50.862;4.696;2023-06-10T11:33:28;11.32;;;5.15;;
19869;SDS011;10097;50.862;4.696;2023-06-10T11:35:55;9.32;;;5.03;;
19869;SDS011;10097;50.862;4.696;2023-06-10T11:38:21;7.68;;;4.07;;
19869;SDS011;10097;50.862;4.696;2023-06-10T11:40:50;9.43;;;4.05;;
19869;SDS011;10097;50.862;4.696;2023-06-10T11:43:19;7.32;;;3.90;;
19869;SDS011;10097;50.862;4.696;2023-06-10T11:45:45;9.18;;;4.30;;
19869;SDS011;10097;50.862;4.696;2023-06-10T11:48:12;10.13;;;3.95;;
19869;SDS011;10097;50.862;4.696;2023-06-10T11:50:38;9.13;;;3.90;;
19869;SDS011;10097;50.862;4.696;2023-06-10T11:53:04;8.45;;;4.60;;
19869;SDS011;10097;50.862;4.696;2023-06-10T11:58:13;7.45;;;3.88;;
19869;SDS011;10097;50.862;4.696;2023-06-10T12:00:49;6.88;;;4.13;;
19869;SDS011;10097;50.862;4.696;2023-06-10T12:03:19;7.82;;;4.15;;
19869;SDS011;10097;50.862;4.696;2023-06-10T12:05:56;12.75;;;4.35;;
19869;SDS011;10097;50.862;4.696;2023-06-10T12:08:23;13.98;;;4.13;;
19869;SDS011;10097;50.862;4.696;2023-06-10T12:10:50;6.90;;;3.95;;
19869;SDS011;10097;50.862;4.696;2023-06-10T12:13:16;6.70;;;4.00;;
19869;SDS011;10097;50.862;4.696;2023-06-10T12:15:45;9.35;;;3.88;;
19869;SDS011;10097;50.862;4.696;2023-06-10T12:18:20;8.70;;;3.72;;
19869;SDS011;10097;50.862;4.696;2023-06-10T12:20:46;8.82;;;4.10;;
19869;SDS011;10097;50.862;4.696;2023-06-10T12:23:15;10.50;;;3.70;;
19869;SDS011;10097;50.862;4.696;2023-06-10T12:25:54;9.52;;;4.22;;
19869;SDS011;10097;50.862;4.696;2023-06-10T12:28:24;7.35;;;4.03;;
19869;SDS011;10097;50.862;4.696;2023-06-10T12:30:52;10.00;;;3.97;;
19869;SDS011;10097;50.862;4.696;2023-06-10T12:33:32;8.18;;;4.43;;
19869;SDS011;10097;50.862;4.696;2023-06-10T12:35:58;9.20;;;4.40;;
19869;SDS011;10097;50.862;4.696;2023-06-10T12:38:25;8.60;;;4.32;;
19869;SDS011;10097;50.862;4.696;2023-06-10T12:40:54;7.65;;;4.03;;
19869;SDS011;10097;50.862;4.696;2023-06-10T12:43:26;9.15;;;3.95;;
19869;SDS011;10097;50.862;4.696;2023-06-10T12:45:52;10.05;;;4.18;;
19869;SDS011;10097;50.862;4.696;2023-06-10T12:48:20;9.43;;;4.13;;
19869;SDS011;10097;50.862;4.696;2023-06-10T12:50:56;9.38;;;4.00;;
19869;SDS011;10097;50.862;4.696;2023-06-10T12:53:26;12.20;;;3.80;;
19869;SDS011;10097;50.862;4.696;2023-06-10T12:55:52;10.13;;;3.78;;
19869;SDS011;10097;50.862;4.696;2023-06-10T12:58:19;12.18;;;4.30;;
19869;SDS011;10097;50.862;4.696;2023-06-10T13:00:45;7.75;;;4.40;;
19869;SDS011;10097;50.862;4.696;2023-06-10T13:03:13;11.68;;;4.18;;
19869;SDS011;10097;50.862;4.696;2023-06-10T13:05:39;9.07;;;4.28;;
19869;SDS011;10097;50.862;4.696;2023-06-10T13:08:05;7.78;;;3.83;;
19869;SDS011;10097;50.862;4.696;2023-06-10T13:10:32;9.00;;;4.35;;
19869;SDS011;10097;50.862;4.696;2023-06-10T13:12:59;7.45;;;4.07;;
19869;SDS011;10097;50.862;4.696;2023-06-10T13:15:25;6.95;;;4.03;;
19869;SDS011;10097;50.862;4.696;2023-06-10T13:17:51;9.48;;;4.10;;
19869;SDS011;10097;50.862;4.696;2023-06-10T13:20:17;9.48;;;4.15;;
19869;SDS011;10097;50.862;4.696;2023-06-10T13:22:43;10.52;;;4.05;;
19869;SDS011;10097;50.862;4.696;2023-06-10T13:25:10;10.27;;;4.60;;
19869;SDS011;10097;50.862;4.696;2023-06-10T13:27:36;8.13;;;4.55;;
19869;SDS011;10097;50.862;4.696;2023-06-10T13:30:06;9.82;;;4.43;;
19869;SDS011;10097;50.862;4.696;2023-06-10T13:32:33;16.63;;;4.13;;
19869;SDS011;10097;50.862;4.696;2023-06-10T13:34:58;13.23;;;4.20;;
19869;SDS011;10097;50.862;4.696;2023-06-10T13:37:24;10.98;;;4.35;;
19869;SDS011;10097;50.862;4.696;2023-06-10T13:39:50;6.25;;;4.05;;
19869;SDS011;10097;50.862;4.696;2023-06-10T13:42:17;8.18;;;3.70;;
19869;SDS011;10097;50.862;4.696;2023-06-10T13:44:43;9.07;;;4.45;;
19869;SDS011;10097;50.862;4.696;2023-06-10T13:47:08;10.80;;;5.50;;
19869;SDS011;10097;50.862;4.696;2023-06-10T13:49:34;10.48;;;4.47;;
19869;SDS011;10097;50.862;4.696;2023-06-10T13:52:00;12.88;;;4.47;;
19869;SDS011;10097;50.862;4.696;2023-06-10T13:54:26;9.98;;;4.25;;
19869;SDS011;10097;50.862;4.696;2023-06-10T13:56:52;10.85;;;4.22;;
19869;SDS011;10097;50.862;4.696;2023-06-10T13:59:18;7.80;;;4.45;;
19869;SDS011;10097;50.862;4.696;2023-06-10T14:01:45;7.75;;;4.30;;
19869;SDS011;10097;50.862;4.696;2023-06-10T14:04:11;9.02;;;4.28;;
19869;SDS011;10097;50.862;4.696;2023-06-10T14:06:36;13.48;;;4.60;;
19869;SDS011;10097;50.862;4.696;2023-06-10T14:09:02;7.72;;;4.25;;
19869;SDS011;10097;50.862;4.696;2023-06-10T14:11:28;8.88;;;4.50;;
19869;SDS011;10097;50.862;4.696;2023-06-10T14:13:56;8.68;;;4.25;;
19869;SDS011;10097;50.862;4.696;2023-06-10T14:16:22;9.30;;;4.50;;
19869;SDS011;10097;50.862;4.696;2023-06-10T14:18:48;10.40;;;4.50;;
19869;SDS011;10097;50.862;4.696;2023-06-10T14:21:16;9.75;;;4.45;;
19869;SDS011;10097;50.862;4.696;2023-06-10T14:23:42;10.13;;;4.53;;
19869;SDS011;10097;50.862;4.696;2023-06-10T14:26:11;7.05;;;3.85;;
19869;SDS011;10097;50.862;4.696;2023-06-10T14:28:37;8.68;;;4.60;;
19869;SDS011;10097;50.862;4.696;2023-06-10T14:31:05;13.93;;;4.50;;
19869;SDS011;10097;50.862;4.696;2023-06-10T14:33:32;8.35;;;4.40;;
19869;SDS011;10097;50.862;4.696;2023-06-10T14:35:58;9.38;;;4.10;;
19869;SDS011;10097;50.862;4.696;2023-06-10T14:38:25;8.75;;;4.40;;
19869;SDS011;10097;50.862;4.696;2023-06-10T14:40:50;8.20;;;4.30;;
19869;SDS011;10097;50.862;4.696;2023-06-10T14:43:17;9.73;;;4.78;;
19869;SDS011;10097;50.862;4.696;2023-06-10T14:45:43;9.55;;;4.32;;
19869;SDS011;10097;50.862;4.696;2023-06-10T14:48:09;10.32;;;4.03;;
19869;SDS011;10097;50.862;4.696;2023-06-10T14:50:35;10.63;;;4.57;;
19869;SDS011;10097;50.862;4.696;2023-06-10T14:53:02;8.55;;;4.40;;
19869;SDS011;10097;50.862;4.696;2023-06-10T14:55:27;6.97;;;3.80;;
19869;SDS011;10097;50.862;4.696;2023-06-10T14:57:53;9.07;;;4.35;;
19869;SDS011;10097;50.862;4.696;2023-06-10T15:00:19;7.03;;;3.90;;
19869;SDS011;10097;50.862;4.696;2023-06-10T15:02:47;8.05;;;3.90;;
19869;SDS011;10097;50.862;4.696;2023-06-10T15:05:16;10.05;;;4.40;;
19869;SDS011;10097;50.862;4.696;2023-06-10T15:07:44;11.75;;;4.28;;
19869;SDS011;10097;50.862;4.696;2023-06-10T15:10:12;8.88;;;4.25;;